EJU18WZ LIMC-LEIB
Flight info
| Callsign | EJU18WZ |
|---|---|
| Flight time | N/A |
| Altitude | 35000 |
| Route | DOGUB6TXNEDED6I/35R NEDED DCT GEKBA DCT VAMTU DCT KOLON DCT GANGU DCT PADKO DCT VATIR N852 PIVUS Z237 SULID DCT DIMIB DCT POS |
| Aircraft | A320/M-SDE3FGHIRWY/LB1 |
Departure
| Time | N/A |
|---|---|
| Airport | Milan Malpensa International Airport (LIMC) |
Arrival
| Time | 2026-04-30 18:02 |
|---|---|
| Airport | Ibiza Airport (LEIB) |
| Time | Latitude | Longitude | Altitude | Speed | Heading |
|---|---|---|---|---|---|
| 2026-04-30 17:39 | 39.09555 | 2.22211 | 26209 ft | 372 kts | 232° |
| 2026-04-30 17:41 | 38.96817 | 2.02332 | 22514 ft | 348 kts | 231° |
| 2026-04-30 17:42 | 38.93755 | 1.97575 | 21629 ft | 343 kts | 231° |
| 2026-04-30 17:42 | 38.90104 | 1.89885 | 20306 ft | 337 kts | 254° |
| 2026-04-30 17:43 | 38.88933 | 1.84084 | 19406 ft | 335 kts | 255° |
| 2026-04-30 17:44 | 38.87178 | 1.75548 | 18531 ft | 312 kts | 254° |
| 2026-04-30 17:44 | 38.85611 | 1.67993 | 17917 ft | 283 kts | 254° |
| 2026-04-30 17:46 | 38.83128 | 1.56138 | 15567 ft | 268 kts | 253° |
| 2026-04-30 17:47 | 38.81103 | 1.47077 | 13858 ft | 266 kts | 253° |
| 2026-04-30 17:48 | 38.78308 | 1.38486 | 12664 ft | 257 kts | 242° |
| 2026-04-30 17:48 | 38.75903 | 1.32675 | 12275 ft | 238 kts | 243° |
| 2026-04-30 17:49 | 38.72811 | 1.25211 | 11517 ft | 240 kts | 242° |
| 2026-04-30 17:50 | 38.69725 | 1.17819 | 10529 ft | 230 kts | 243° |
| 2026-04-30 17:51 | 38.67480 | 1.12448 | 9702 ft | 228 kts | 243° |
| 2026-04-30 17:52 | 38.65388 | 1.07446 | 8466 ft | 243 kts | 243° |
| 2026-04-30 17:53 | 38.64432 | 0.97332 | 6985 ft | 220 kts | 304° |
| 2026-04-30 17:54 | 38.69560 | 0.95455 | 6399 ft | 216 kts | 36° |
| 2026-04-30 17:55 | 38.72622 | 1.02122 | 5253 ft | 208 kts | 60° |
| 2026-04-30 17:56 | 38.75198 | 1.08275 | 4369 ft | 191 kts | 60° |
| 2026-04-30 17:57 | 38.77054 | 1.12716 | 3744 ft | 188 kts | 60° |
| 2026-04-30 17:58 | 38.78899 | 1.17135 | 3226 ft | 187 kts | 60° |
| 2026-04-30 17:59 | 38.81292 | 1.22880 | 2269 ft | 168 kts | 60° |
| 2026-04-30 18:00 | 38.83257 | 1.27603 | 1459 ft | 143 kts | 61° |
| 2026-04-30 18:00 | 38.84667 | 1.30952 | 896 ft | 142 kts | 60° |
| 2026-04-30 18:01 | 38.85566 | 1.33188 | 511 ft | 140 kts | 64° |
| 2026-04-30 18:02 | 38.86926 | 1.36449 | 8 ft | 130 kts | 62° |
| 2026-04-30 18:02 | 38.87407 | 1.37467 | 10 ft | 23 kts | 31° |
| 2026-04-30 18:03 | 38.87503 | 1.37541 | 11 ft | 0 kts | 31° |
| 2026-04-30 18:04 | 38.87580 | 1.37556 | 9 ft | 4 kts | 330° |
| 2026-04-30 18:05 | 38.87655 | 1.37508 | 9 ft | 5 kts | 334° |
| 2026-04-30 18:06 | 38.87650 | 1.37315 | 8 ft | 6 kts | 241° |
| 2026-04-30 18:07 | 38.87591 | 1.37172 | 9 ft | 3 kts | 244° |
| 2026-04-30 18:08 | 38.87533 | 1.37029 | 9 ft | 6 kts | 243° |
| 2026-04-30 18:09 | 38.87527 | 1.36942 | 9 ft | 1 kts | 328° |
| 2026-04-30 18:10 | 38.87559 | 1.36921 | 8 ft | 0 kts | 333° |